sensor_id;sensor_type;location;lat;lon;timestamp;temperature;humidity
13328;DHT22;6733;51.044;3.746;2023-12-20T00:01:55;7.90;81.00
13328;DHT22;6733;51.044;3.746;2023-12-20T00:04:21;7.80;81.30
13328;DHT22;6733;51.044;3.746;2023-12-20T00:06:47;7.80;81.50
13328;DHT22;6733;51.044;3.746;2023-12-20T00:09:13;7.80;81.50
13328;DHT22;6733;51.044;3.746;2023-12-20T00:11:39;7.80;81.50
13328;DHT22;6733;51.044;3.746;2023-12-20T00:14:08;7.70;81.70
13328;DHT22;6733;51.044;3.746;2023-12-20T00:16:34;7.70;82.00
13328;DHT22;6733;51.044;3.746;2023-12-20T00:19:01;7.60;82.20
13328;DHT22;6733;51.044;3.746;2023-12-20T00:21:27;7.60;82.50
13328;DHT22;6733;51.044;3.746;2023-12-20T00:23:53;7.60;82.70
13328;DHT22;6733;51.044;3.746;2023-12-20T00:26:19;7.60;82.80
13328;DHT22;6733;51.044;3.746;2023-12-20T00:28:45;7.60;82.80
13328;DHT22;6733;51.044;3.746;2023-12-20T00:31:11;7.60;82.80
13328;DHT22;6733;51.044;3.746;2023-12-20T00:33:37;7.60;83.10
13328;DHT22;6733;51.044;3.746;2023-12-20T00:36:05;7.50;83.30
13328;DHT22;6733;51.044;3.746;2023-12-20T00:38:32;7.50;83.40
13328;DHT22;6733;51.044;3.746;2023-12-20T00:40:58;7.50;83.50
13328;DHT22;6733;51.044;3.746;2023-12-20T00:43:24;7.50;83.50
13328;DHT22;6733;51.044;3.746;2023-12-20T00:45:50;7.50;83.60
13328;DHT22;6733;51.044;3.746;2023-12-20T00:48:16;7.60;83.50
13328;DHT22;6733;51.044;3.746;2023-12-20T00:50:42;7.50;83.60
13328;DHT22;6733;51.044;3.746;2023-12-20T00:53:08;7.50;83.70
13328;DHT22;6733;51.044;3.746;2023-12-20T00:55:34;7.50;83.90
13328;DHT22;6733;51.044;3.746;2023-12-20T00:58:01;7.50;83.90
13328;DHT22;6733;51.044;3.746;2023-12-20T01:00:27;7.50;84.30
13328;DHT22;6733;51.044;3.746;2023-12-20T01:02:53;7.60;84.20
13328;DHT22;6733;51.044;3.746;2023-12-20T01:05:19;7.60;84.00
13328;DHT22;6733;51.044;3.746;2023-12-20T01:07:45;7.60;83.90
13328;DHT22;6733;51.044;3.746;2023-12-20T01:10:11;7.60;83.60
13328;DHT22;6733;51.044;3.746;2023-12-20T01:12:37;7.60;83.60
13328;DHT22;6733;51.044;3.746;2023-12-20T01:15:04;7.50;83.70
13328;DHT22;6733;51.044;3.746;2023-12-20T01:17:30;7.60;83.70
13328;DHT22;6733;51.044;3.746;2023-12-20T01:19:56;7.60;83.60
13328;DHT22;6733;51.044;3.746;2023-12-20T01:22:22;7.60;83.80
13328;DHT22;6733;51.044;3.746;2023-12-20T01:24:49;7.70;83.80
13328;DHT22;6733;51.044;3.746;2023-12-20T01:27:15;7.70;83.60
13328;DHT22;6733;51.044;3.746;2023-12-20T01:29:41;7.80;83.40
13328;DHT22;6733;51.044;3.746;2023-12-20T01:32:07;7.80;83.10
13328;DHT22;6733;51.044;3.746;2023-12-20T01:34:33;7.80;82.90
13328;DHT22;6733;51.044;3.746;2023-12-20T01:37:00;7.80;82.80
13328;DHT22;6733;51.044;3.746;2023-12-20T01:39:26;7.90;82.60
13328;DHT22;6733;51.044;3.746;2023-12-20T01:41:52;7.80;82.50
13328;DHT22;6733;51.044;3.746;2023-12-20T01:44:18;7.80;82.50
13328;DHT22;6733;51.044;3.746;2023-12-20T01:46:45;7.80;82.40
13328;DHT22;6733;51.044;3.746;2023-12-20T01:49:12;7.80;82.30
13328;DHT22;6733;51.044;3.746;2023-12-20T01:51:39;7.80;82.30
13328;DHT22;6733;51.044;3.746;2023-12-20T01:54:05;7.90;82.10
13328;DHT22;6733;51.044;3.746;2023-12-20T01:56:32;7.80;82.10
13328;DHT22;6733;51.044;3.746;2023-12-20T01:59:00;7.90;82.00
13328;DHT22;6733;51.044;3.746;2023-12-20T02:01:26;7.90;82.00
13328;DHT22;6733;51.044;3.746;2023-12-20T02:03:55;7.90;81.90
13328;DHT22;6733;51.044;3.746;2023-12-20T02:06:23;7.90;82.00
13328;DHT22;6733;51.044;3.746;2023-12-20T02:08:50;7.90;81.90
13328;DHT22;6733;51.044;3.746;2023-12-20T02:11:16;7.90;82.00
13328;DHT22;6733;51.044;3.746;2023-12-20T02:13:42;8.00;81.80
13328;DHT22;6733;51.044;3.746;2023-12-20T02:16:08;8.00;81.70
13328;DHT22;6733;51.044;3.746;2023-12-20T02:18:35;7.90;81.60
13328;DHT22;6733;51.044;3.746;2023-12-20T02:21:01;8.00;81.70
13328;DHT22;6733;51.044;3.746;2023-12-20T02:23:27;8.00;81.70
13328;DHT22;6733;51.044;3.746;2023-12-20T02:25:53;8.00;81.60
13328;DHT22;6733;51.044;3.746;2023-12-20T02:28:20;8.00;81.50
13328;DHT22;6733;51.044;3.746;2023-12-20T02:30:47;8.00;81.60
13328;DHT22;6733;51.044;3.746;2023-12-20T02:58:11;8.20;81.80
13328;DHT22;6733;51.044;3.746;2023-12-20T03:00:37;8.30;81.80
13328;DHT22;6733;51.044;3.746;2023-12-20T03:03:04;8.30;81.70
13328;DHT22;6733;51.044;3.746;2023-12-20T03:05:30;8.30;81.80
13328;DHT22;6733;51.044;3.746;2023-12-20T03:07:56;8.30;81.80
13328;DHT22;6733;51.044;3.746;2023-12-20T03:10:22;8.30;81.60
13328;DHT22;6733;51.044;3.746;2023-12-20T03:12:49;8.30;81.70
13328;DHT22;6733;51.044;3.746;2023-12-20T03:15:15;8.30;81.60
13328;DHT22;6733;51.044;3.746;2023-12-20T03:17:41;8.30;81.70
13328;DHT22;6733;51.044;3.746;2023-12-20T03:20:08;8.30;81.60
13328;DHT22;6733;51.044;3.746;2023-12-20T03:22:34;8.40;81.50
13328;DHT22;6733;51.044;3.746;2023-12-20T03:25:01;8.40;81.30
13328;DHT22;6733;51.044;3.746;2023-12-20T03:27:27;8.40;81.20
13328;DHT22;6733;51.044;3.746;2023-12-20T03:29:53;8.30;81.20
13328;DHT22;6733;51.044;3.746;2023-12-20T03:32:19;8.30;81.30
13328;DHT22;6733;51.044;3.746;2023-12-20T03:34:46;8.30;81.30
13328;DHT22;6733;51.044;3.746;2023-12-20T03:37:12;8.30;81.30
13328;DHT22;6733;51.044;3.746;2023-12-20T03:39:38;8.40;81.20
13328;DHT22;6733;51.044;3.746;2023-12-20T03:42:04;8.40;81.10
13328;DHT22;6733;51.044;3.746;2023-12-20T03:44:30;8.40;80.90
13328;DHT22;6733;51.044;3.746;2023-12-20T03:46:56;8.50;80.60
13328;DHT22;6733;51.044;3.746;2023-12-20T03:49:23;8.40;80.70
13328;DHT22;6733;51.044;3.746;2023-12-20T03:51:49;8.40;80.70
13328;DHT22;6733;51.044;3.746;2023-12-20T03:54:15;8.40;80.60
13328;DHT22;6733;51.044;3.746;2023-12-20T03:56:41;8.30;80.60
13328;DHT22;6733;51.044;3.746;2023-12-20T03:59:07;8.30;80.70
13328;DHT22;6733;51.044;3.746;2023-12-20T04:01:33;8.20;80.90
13328;DHT22;6733;51.044;3.746;2023-12-20T04:03:59;8.20;80.90
13328;DHT22;6733;51.044;3.746;2023-12-20T04:06:25;8.10;81.10
13328;DHT22;6733;51.044;3.746;2023-12-20T04:08:51;8.00;81.20
13328;DHT22;6733;51.044;3.746;2023-12-20T04:11:18;8.00;81.40
13328;DHT22;6733;51.044;3.746;2023-12-20T04:13:44;8.00;81.40
13328;DHT22;6733;51.044;3.746;2023-12-20T04:16:10;8.00;81.30
13328;DHT22;6733;51.044;3.746;2023-12-20T04:18:36;8.00;81.10
13328;DHT22;6733;51.044;3.746;2023-12-20T04:21:02;7.90;81.30
13328;DHT22;6733;51.044;3.746;2023-12-20T04:23:29;7.90;81.50
13328;DHT22;6733;51.044;3.746;2023-12-20T04:25:55;7.90;81.60
13328;DHT22;6733;51.044;3.746;2023-12-20T04:28:21;7.90;81.70
13328;DHT22;6733;51.044;3.746;2023-12-20T04:30:47;8.00;81.60
13328;DHT22;6733;51.044;3.746;2023-12-20T04:33:13;8.00;81.40
13328;DHT22;6733;51.044;3.746;2023-12-20T04:35:40;8.00;81.20
13328;DHT22;6733;51.044;3.746;2023-12-20T04:38:09;8.00;81.00
13328;DHT22;6733;51.044;3.746;2023-12-20T04:40:35;8.00;80.90
13328;DHT22;6733;51.044;3.746;2023-12-20T04:43:01;8.00;80.90
13328;DHT22;6733;51.044;3.746;2023-12-20T04:45:27;8.00;81.10
13328;DHT22;6733;51.044;3.746;2023-12-20T04:47:53;7.90;81.20
13328;DHT22;6733;51.044;3.746;2023-12-20T04:50:19;7.90;81.40
13328;DHT22;6733;51.044;3.746;2023-12-20T04:52:47;7.90;81.30
13328;DHT22;6733;51.044;3.746;2023-12-20T04:55:13;7.80;81.40
13328;DHT22;6733;51.044;3.746;2023-12-20T04:57:40;7.80;81.50
13328;DHT22;6733;51.044;3.746;2023-12-20T05:00:07;7.70;81.60
13328;DHT22;6733;51.044;3.746;2023-12-20T05:02:37;7.60;81.80
13328;DHT22;6733;51.044;3.746;2023-12-20T05:05:03;7.50;82.00
13328;DHT22;6733;51.044;3.746;2023-12-20T05:07:29;7.50;82.20
13328;DHT22;6733;51.044;3.746;2023-12-20T05:09:55;7.50;82.30
13328;DHT22;6733;51.044;3.746;2023-12-20T05:12:21;7.40;82.40
13328;DHT22;6733;51.044;3.746;2023-12-20T05:14:48;7.40;82.40
13328;DHT22;6733;51.044;3.746;2023-12-20T05:17:14;7.50;82.30
13328;DHT22;6733;51.044;3.746;2023-12-20T05:19:40;7.50;82.30
13328;DHT22;6733;51.044;3.746;2023-12-20T05:22:06;7.50;82.10
13328;DHT22;6733;51.044;3.746;2023-12-20T05:24:32;7.50;82.10
13328;DHT22;6733;51.044;3.746;2023-12-20T05:26:58;7.40;82.20
13328;DHT22;6733;51.044;3.746;2023-12-20T05:29:24;7.40;82.20
13328;DHT22;6733;51.044;3.746;2023-12-20T05:31:50;7.30;82.40
13328;DHT22;6733;51.044;3.746;2023-12-20T05:34:16;7.40;82.50
13328;DHT22;6733;51.044;3.746;2023-12-20T05:36:43;7.40;82.40
13328;DHT22;6733;51.044;3.746;2023-12-20T05:39:09;7.40;82.40
13328;DHT22;6733;51.044;3.746;2023-12-20T05:41:35;7.50;82.20
13328;DHT22;6733;51.044;3.746;2023-12-20T05:44:01;7.50;82.10
13328;DHT22;6733;51.044;3.746;2023-12-20T05:46:27;7.50;82.00
13328;DHT22;6733;51.044;3.746;2023-12-20T05:48:54;7.50;82.00
13328;DHT22;6733;51.044;3.746;2023-12-20T05:51:20;7.50;81.70
13328;DHT22;6733;51.044;3.746;2023-12-20T05:53:46;7.50;81.80
13328;DHT22;6733;51.044;3.746;2023-12-20T05:56:12;7.50;81.60
13328;DHT22;6733;51.044;3.746;2023-12-20T05:58:39;7.50;81.50
13328;DHT22;6733;51.044;3.746;2023-12-20T06:01:06;7.50;81.40
13328;DHT22;6733;51.044;3.746;2023-12-20T06:03:33;7.40;81.70
13328;DHT22;6733;51.044;3.746;2023-12-20T06:06:06;7.30;82.10
13328;DHT22;6733;51.044;3.746;2023-12-20T06:08:33;7.20;82.20
13328;DHT22;6733;51.044;3.746;2023-12-20T06:10:59;7.20;82.40
13328;DHT22;6733;51.044;3.746;2023-12-20T06:13:25;7.10;82.60
13328;DHT22;6733;51.044;3.746;2023-12-20T06:15:51;7.10;82.70
13328;DHT22;6733;51.044;3.746;2023-12-20T06:18:18;7.10;82.80
13328;DHT22;6733;51.044;3.746;2023-12-20T06:20:44;7.10;83.00
13328;DHT22;6733;51.044;3.746;2023-12-20T06:23:09;7.10;83.00
13328;DHT22;6733;51.044;3.746;2023-12-20T06:25:36;7.10;82.90
13328;DHT22;6733;51.044;3.746;2023-12-20T06:28:02;7.00;83.10
13328;DHT22;6733;51.044;3.746;2023-12-20T06:30:28;7.00;83.20
13328;DHT22;6733;51.044;3.746;2023-12-20T06:32:54;7.00;83.20
13328;DHT22;6733;51.044;3.746;2023-12-20T06:35:23;7.00;83.20
13328;DHT22;6733;51.044;3.746;2023-12-20T06:37:50;7.00;83.20
13328;DHT22;6733;51.044;3.746;2023-12-20T06:40:16;7.00;83.10
13328;DHT22;6733;51.044;3.746;2023-12-20T06:42:42;7.00;83.10
13328;DHT22;6733;51.044;3.746;2023-12-20T06:45:09;7.10;83.00
13328;DHT22;6733;51.044;3.746;2023-12-20T06:47:35;7.00;82.90
13328;DHT22;6733;51.044;3.746;2023-12-20T06:50:01;7.00;82.90
13328;DHT22;6733;51.044;3.746;2023-12-20T06:52:27;6.90;83.00
13328;DHT22;6733;51.044;3.746;2023-12-20T06:54:53;6.90;83.20
13328;DHT22;6733;51.044;3.746;2023-12-20T06:57:20;6.90;83.80
13328;DHT22;6733;51.044;3.746;2023-12-20T06:59:46;6.90;83.70
13328;DHT22;6733;51.044;3.746;2023-12-20T07:02:12;6.90;83.70
13328;DHT22;6733;51.044;3.746;2023-12-20T07:04:40;6.80;83.50
13328;DHT22;6733;51.044;3.746;2023-12-20T07:07:06;6.80;83.50
13328;DHT22;6733;51.044;3.746;2023-12-20T07:09:33;6.80;83.50
13328;DHT22;6733;51.044;3.746;2023-12-20T07:11:59;6.80;83.50
13328;DHT22;6733;51.044;3.746;2023-12-20T07:14:25;6.80;83.50
13328;DHT22;6733;51.044;3.746;2023-12-20T07:16:52;6.80;83.40
13328;DHT22;6733;51.044;3.746;2023-12-20T07:19:18;6.80;83.50
13328;DHT22;6733;51.044;3.746;2023-12-20T07:21:44;6.90;83.30
13328;DHT22;6733;51.044;3.746;2023-12-20T07:24:10;6.90;83.40
13328;DHT22;6733;51.044;3.746;2023-12-20T07:26:37;6.90;83.50
13328;DHT22;6733;51.044;3.746;2023-12-20T07:29:04;6.90;83.60
13328;DHT22;6733;51.044;3.746;2023-12-20T07:31:30;6.90;83.30
13328;DHT22;6733;51.044;3.746;2023-12-20T07:33:56;6.90;83.30
13328;DHT22;6733;51.044;3.746;2023-12-20T07:36:22;6.90;83.30
13328;DHT22;6733;51.044;3.746;2023-12-20T07:38:49;6.80;83.20
13328;DHT22;6733;51.044;3.746;2023-12-20T07:41:15;6.80;83.30
13328;DHT22;6733;51.044;3.746;2023-12-20T07:43:47;6.80;83.40
13328;DHT22;6733;51.044;3.746;2023-12-20T07:46:13;6.80;83.30
13328;DHT22;6733;51.044;3.746;2023-12-20T07:48:39;6.80;83.50
13328;DHT22;6733;51.044;3.746;2023-12-20T07:51:05;6.80;83.50
13328;DHT22;6733;51.044;3.746;2023-12-20T07:53:33;6.80;83.60
13328;DHT22;6733;51.044;3.746;2023-12-20T07:56:00;6.80;83.50
13328;DHT22;6733;51.044;3.746;2023-12-20T07:58:26;6.80;83.50
13328;DHT22;6733;51.044;3.746;2023-12-20T08:00:52;6.80;83.40
13328;DHT22;6733;51.044;3.746;2023-12-20T08:03:18;6.80;83.40
13328;DHT22;6733;51.044;3.746;2023-12-20T08:05:44;6.80;83.40
13328;DHT22;6733;51.044;3.746;2023-12-20T08:08:10;6.80;83.70
13328;DHT22;6733;51.044;3.746;2023-12-20T08:10:36;6.80;83.70
13328;DHT22;6733;51.044;3.746;2023-12-20T08:13:03;6.70;83.60
13328;DHT22;6733;51.044;3.746;2023-12-20T08:15:29;6.70;83.60
13328;DHT22;6733;51.044;3.746;2023-12-20T08:17:55;6.70;83.70
13328;DHT22;6733;51.044;3.746;2023-12-20T08:20:21;6.70;83.80
13328;DHT22;6733;51.044;3.746;2023-12-20T08:22:47;6.70;83.80
13328;DHT22;6733;51.044;3.746;2023-12-20T08:25:13;6.70;84.00
13328;DHT22;6733;51.044;3.746;2023-12-20T08:27:41;6.60;84.10
13328;DHT22;6733;51.044;3.746;2023-12-20T08:30:10;6.60;84.10
13328;DHT22;6733;51.044;3.746;2023-12-20T08:32:37;6.60;84.10
13328;DHT22;6733;51.044;3.746;2023-12-20T08:35:03;6.60;84.10
13328;DHT22;6733;51.044;3.746;2023-12-20T08:37:29;6.70;84.10
13328;DHT22;6733;51.044;3.746;2023-12-20T08:39:56;6.80;84.00
13328;DHT22;6733;51.044;3.746;2023-12-20T08:42:22;6.80;83.80
13328;DHT22;6733;51.044;3.746;2023-12-20T08:44:50;6.80;83.80
13328;DHT22;6733;51.044;3.746;2023-12-20T08:47:16;6.80;83.60
13328;DHT22;6733;51.044;3.746;2023-12-20T08:49:43;6.90;83.60
13328;DHT22;6733;51.044;3.746;2023-12-20T08:52:09;6.90;83.50
13328;DHT22;6733;51.044;3.746;2023-12-20T08:54:36;7.00;83.10
13328;DHT22;6733;51.044;3.746;2023-12-20T08:57:02;6.90;82.80
13328;DHT22;6733;51.044;3.746;2023-12-20T08:59:28;6.90;83.10
13328;DHT22;6733;51.044;3.746;2023-12-20T09:01:54;6.90;83.10
13328;DHT22;6733;51.044;3.746;2023-12-20T09:04:22;6.90;82.90
13328;DHT22;6733;51.044;3.746;2023-12-20T09:06:48;6.90;83.10
13328;DHT22;6733;51.044;3.746;2023-12-20T09:09:14;6.90;83.20
13328;DHT22;6733;51.044;3.746;2023-12-20T09:11:40;6.80;83.50
13328;DHT22;6733;51.044;3.746;2023-12-20T09:14:07;6.90;83.60
13328;DHT22;6733;51.044;3.746;2023-12-20T09:16:33;7.00;83.50
13328;DHT22;6733;51.044;3.746;2023-12-20T09:18:59;7.00;83.20
13328;DHT22;6733;51.044;3.746;2023-12-20T09:21:25;7.10;83.10
13328;DHT22;6733;51.044;3.746;2023-12-20T09:23:51;7.20;82.90
13328;DHT22;6733;51.044;3.746;2023-12-20T09:26:18;7.20;82.60
13328;DHT22;6733;51.044;3.746;2023-12-20T09:28:44;7.20;82.60
13328;DHT22;6733;51.044;3.746;2023-12-20T09:31:10;7.10;82.90
13328;DHT22;6733;51.044;3.746;2023-12-20T09:33:36;7.10;83.30
13328;DHT22;6733;51.044;3.746;2023-12-20T09:36:03;7.10;83.50
13328;DHT22;6733;51.044;3.746;2023-12-20T09:38:29;7.20;83.50
13328;DHT22;6733;51.044;3.746;2023-12-20T09:40:56;7.20;83.40
13328;DHT22;6733;51.044;3.746;2023-12-20T09:43:24;7.30;83.30
13328;DHT22;6733;51.044;3.746;2023-12-20T09:45:53;7.40;83.10
13328;DHT22;6733;51.044;3.746;2023-12-20T09:48:20;7.50;82.90
13328;DHT22;6733;51.044;3.746;2023-12-20T09:50:47;7.70;82.50
13328;DHT22;6733;51.044;3.746;2023-12-20T09:53:15;7.80;81.60
13328;DHT22;6733;51.044;3.746;2023-12-20T09:55:42;7.90;81.60
13328;DHT22;6733;51.044;3.746;2023-12-20T09:58:08;8.00;81.30
13328;DHT22;6733;51.044;3.746;2023-12-20T10:00:35;8.10;80.90
13328;DHT22;6733;51.044;3.746;2023-12-20T10:03:01;8.20;80.80
13328;DHT22;6733;51.044;3.746;2023-12-20T10:05:29;8.20;80.40
13328;DHT22;6733;51.044;3.746;2023-12-20T10:07:56;8.30;80.40
13328;DHT22;6733;51.044;3.746;2023-12-20T10:10:23;8.40;80.10
13328;DHT22;6733;51.044;3.746;2023-12-20T10:13:11;8.50;79.90
13328;DHT22;6733;51.044;3.746;2023-12-20T10:15:38;8.60;79.40
13328;DHT22;6733;51.044;3.746;2023-12-20T10:18:04;8.60;79.50
13328;DHT22;6733;51.044;3.746;2023-12-20T10:20:31;8.60;79.20
13328;DHT22;6733;51.044;3.746;2023-12-20T10:22:58;8.60;79.30
13328;DHT22;6733;51.044;3.746;2023-12-20T10:25:25;8.70;79.30
13328;DHT22;6733;51.044;3.746;2023-12-20T10:28:12;8.80;79.00
13328;DHT22;6733;51.044;3.746;2023-12-20T10:30:39;8.80;78.70
13328;DHT22;6733;51.044;3.746;2023-12-20T10:33:06;8.90;78.80
13328;DHT22;6733;51.044;3.746;2023-12-20T10:35:34;8.90;78.50
13328;DHT22;6733;51.044;3.746;2023-12-20T10:38:03;8.90;78.50
13328;DHT22;6733;51.044;3.746;2023-12-20T10:40:34;8.90;78.50
13328;DHT22;6733;51.044;3.746;2023-12-20T10:43:01;9.00;78.40
13328;DHT22;6733;51.044;3.746;2023-12-20T10:45:28;9.10;78.30
13328;DHT22;6733;51.044;3.746;2023-12-20T10:47:54;9.10;78.30
13328;DHT22;6733;51.044;3.746;2023-12-20T10:50:21;9.10;78.40
13328;DHT22;6733;51.044;3.746;2023-12-20T10:52:47;9.10;78.10
13328;DHT22;6733;51.044;3.746;2023-12-20T10:55:14;9.10;78.20
13328;DHT22;6733;51.044;3.746;2023-12-20T10:57:41;9.20;78.20
13328;DHT22;6733;51.044;3.746;2023-12-20T11:00:10;9.20;78.00
13328;DHT22;6733;51.044;3.746;2023-12-20T11:02:40;9.30;78.00
13328;DHT22;6733;51.044;3.746;2023-12-20T11:07:58;9.30;77.80
13328;DHT22;6733;51.044;3.746;2023-12-20T11:13:31;9.40;77.90
13328;DHT22;6733;51.044;3.746;2023-12-20T11:15:59;9.50;77.80
13328;DHT22;6733;51.044;3.746;2023-12-20T11:18:31;9.50;77.60
13328;DHT22;6733;51.044;3.746;2023-12-20T11:21:04;9.60;77.60
13328;DHT22;6733;51.044;3.746;2023-12-20T11:23:32;9.60;77.60
13328;DHT22;6733;51.044;3.746;2023-12-20T11:26:02;9.80;77.10
13328;DHT22;6733;51.044;3.746;2023-12-20T11:28:28;9.80;76.60
13328;DHT22;6733;51.044;3.746;2023-12-20T11:30:57;9.90;76.80
13328;DHT22;6733;51.044;3.746;2023-12-20T11:33:29;10.00;76.20
13328;DHT22;6733;51.044;3.746;2023-12-20T11:35:56;10.00;76.20
13328;DHT22;6733;51.044;3.746;2023-12-20T11:38:23;10.10;76.00
13328;DHT22;6733;51.044;3.746;2023-12-20T11:40:50;10.20;75.80
13328;DHT22;6733;51.044;3.746;2023-12-20T11:43:39;10.20;75.70
13328;DHT22;6733;51.044;3.746;2023-12-20T11:46:05;10.30;75.60
13328;DHT22;6733;51.044;3.746;2023-12-20T11:48:33;10.40;75.20
13328;DHT22;6733;51.044;3.746;2023-12-20T11:51:00;10.30;75.00
13328;DHT22;6733;51.044;3.746;2023-12-20T11:53:26;10.20;75.40
13328;DHT22;6733;51.044;3.746;2023-12-20T11:55:54;10.30;75.30
13328;DHT22;6733;51.044;3.746;2023-12-20T11:58:20;10.30;75.10
13328;DHT22;6733;51.044;3.746;2023-12-20T12:00:49;10.20;75.30
13328;DHT22;6733;51.044;3.746;2023-12-20T12:03:16;10.20;75.40
13328;DHT22;6733;51.044;3.746;2023-12-20T12:05:42;10.30;75.50
13328;DHT22;6733;51.044;3.746;2023-12-20T12:08:08;10.30;75.90
13328;DHT22;6733;51.044;3.746;2023-12-20T12:10:34;10.30;75.90
13328;DHT22;6733;51.044;3.746;2023-12-20T12:13:01;10.40;75.70
13328;DHT22;6733;51.044;3.746;2023-12-20T12:15:27;10.40;75.70
13328;DHT22;6733;51.044;3.746;2023-12-20T12:17:54;10.30;76.00
13328;DHT22;6733;51.044;3.746;2023-12-20T12:20:21;10.20;76.10
13328;DHT22;6733;51.044;3.746;2023-12-20T12:23:04;10.20;76.50
13328;DHT22;6733;51.044;3.746;2023-12-20T12:25:32;10.10;76.70
13328;DHT22;6733;51.044;3.746;2023-12-20T12:27:59;10.10;76.90
13328;DHT22;6733;51.044;3.746;2023-12-20T12:30:25;10.20;76.90
13328;DHT22;6733;51.044;3.746;2023-12-20T12:32:52;10.20;76.80
13328;DHT22;6733;51.044;3.746;2023-12-20T12:35:19;10.30;76.60
13328;DHT22;6733;51.044;3.746;2023-12-20T12:37:46;10.20;76.80
13328;DHT22;6733;51.044;3.746;2023-12-20T12:40:14;10.40;76.90
13328;DHT22;6733;51.044;3.746;2023-12-20T12:42:42;10.50;76.30
13328;DHT22;6733;51.044;3.746;2023-12-20T12:45:09;10.70;76.10
13328;DHT22;6733;51.044;3.746;2023-12-20T12:47:37;10.90;75.70
13328;DHT22;6733;51.044;3.746;2023-12-20T12:50:04;11.10;75.00
13328;DHT22;6733;51.044;3.746;2023-12-20T12:52:30;11.20;74.50
13328;DHT22;6733;51.044;3.746;2023-12-20T12:54:57;11.30;74.10
13328;DHT22;6733;51.044;3.746;2023-12-20T12:57:23;11.30;73.90
13328;DHT22;6733;51.044;3.746;2023-12-20T12:59:50;11.20;73.90
13328;DHT22;6733;51.044;3.746;2023-12-20T13:02:16;11.30;74.00
13328;DHT22;6733;51.044;3.746;2023-12-20T13:04:42;11.30;73.70
13328;DHT22;6733;51.044;3.746;2023-12-20T13:07:10;11.30;73.60
13328;DHT22;6733;51.044;3.746;2023-12-20T13:09:39;11.30;73.40
13328;DHT22;6733;51.044;3.746;2023-12-20T13:12:06;11.20;73.50
13328;DHT22;6733;51.044;3.746;2023-12-20T13:14:34;11.20;73.70
13328;DHT22;6733;51.044;3.746;2023-12-20T13:17:01;11.20;73.80
13328;DHT22;6733;51.044;3.746;2023-12-20T13:19:27;11.20;73.60
13328;DHT22;6733;51.044;3.746;2023-12-20T13:21:53;11.10;74.00
13328;DHT22;6733;51.044;3.746;2023-12-20T13:24:19;11.20;73.90
13328;DHT22;6733;51.044;3.746;2023-12-20T13:26:45;11.20;73.80
13328;DHT22;6733;51.044;3.746;2023-12-20T13:29:12;11.10;73.80
13328;DHT22;6733;51.044;3.746;2023-12-20T13:31:38;11.20;73.60
13328;DHT22;6733;51.044;3.746;2023-12-20T13:34:06;11.10;73.70
13328;DHT22;6733;51.044;3.746;2023-12-20T13:36:32;11.10;74.00
13328;DHT22;6733;51.044;3.746;2023-12-20T13:38:58;11.10;74.10
13328;DHT22;6733;51.044;3.746;2023-12-20T13:41:25;11.00;74.30
13328;DHT22;6733;51.044;3.746;2023-12-20T13:43:51;11.00;74.20
13328;DHT22;6733;51.044;3.746;2023-12-20T13:46:17;10.80;74.60
13328;DHT22;6733;51.044;3.746;2023-12-20T13:48:43;10.90;74.80
13328;DHT22;6733;51.044;3.746;2023-12-20T13:51:09;10.90;74.90
13328;DHT22;6733;51.044;3.746;2023-12-20T13:53:35;10.90;74.70
13328;DHT22;6733;51.044;3.746;2023-12-20T13:56:01;10.80;74.90
13328;DHT22;6733;51.044;3.746;2023-12-20T13:58:28;10.80;75.10
13328;DHT22;6733;51.044;3.746;2023-12-20T14:00:54;10.80;75.10
13328;DHT22;6733;51.044;3.746;2023-12-20T14:03:20;10.80;75.30
13328;DHT22;6733;51.044;3.746;2023-12-20T14:05:47;10.80;75.40
13328;DHT22;6733;51.044;3.746;2023-12-20T14:08:13;10.80;75.40
13328;DHT22;6733;51.044;3.746;2023-12-20T14:10:39;10.80;75.30
13328;DHT22;6733;51.044;3.746;2023-12-20T14:13:05;10.70;75.50
13328;DHT22;6733;51.044;3.746;2023-12-20T14:15:31;10.70;75.70
13328;DHT22;6733;51.044;3.746;2023-12-20T14:18:06;10.60;75.90
13328;DHT22;6733;51.044;3.746;2023-12-20T14:20:34;10.60;75.90
13328;DHT22;6733;51.044;3.746;2023-12-20T14:23:01;10.70;75.80
13328;DHT22;6733;51.044;3.746;2023-12-20T14:25:28;10.70;75.50
13328;DHT22;6733;51.044;3.746;2023-12-20T14:27:54;10.60;75.60
13328;DHT22;6733;51.044;3.746;2023-12-20T14:30:20;10.60;75.70
13328;DHT22;6733;51.044;3.746;2023-12-20T14:32:46;10.60;75.90
13328;DHT22;6733;51.044;3.746;2023-12-20T14:35:14;10.60;75.90
13328;DHT22;6733;51.044;3.746;2023-12-20T14:37:40;10.60;76.00
13328;DHT22;6733;51.044;3.746;2023-12-20T14:40:07;10.70;75.90
13328;DHT22;6733;51.044;3.746;2023-12-20T14:42:41;10.60;76.00
13328;DHT22;6733;51.044;3.746;2023-12-20T14:45:08;10.60;75.90
13328;DHT22;6733;51.044;3.746;2023-12-20T14:47:34;10.50;76.20
13328;DHT22;6733;51.044;3.746;2023-12-20T14:50:05;10.40;76.60
13328;DHT22;6733;51.044;3.746;2023-12-20T14:52:32;10.40;76.80
13328;DHT22;6733;51.044;3.746;2023-12-20T14:55:03;10.40;77.00
13328;DHT22;6733;51.044;3.746;2023-12-20T14:57:30;10.40;76.90
13328;DHT22;6733;51.044;3.746;2023-12-20T14:59:57;10.40;77.20
13328;DHT22;6733;51.044;3.746;2023-12-20T15:02:23;10.50;77.00
13328;DHT22;6733;51.044;3.746;2023-12-20T15:04:49;10.50;77.00
13328;DHT22;6733;51.044;3.746;2023-12-20T15:07:16;10.50;76.90
13328;DHT22;6733;51.044;3.746;2023-12-20T15:09:43;10.50;77.10
13328;DHT22;6733;51.044;3.746;2023-12-20T15:12:13;10.60;77.00
13328;DHT22;6733;51.044;3.746;2023-12-20T15:14:39;10.60;76.90
13328;DHT22;6733;51.044;3.746;2023-12-20T15:17:06;10.60;77.00
13328;DHT22;6733;51.044;3.746;2023-12-20T15:19:32;10.60;77.00
13328;DHT22;6733;51.044;3.746;2023-12-20T15:21:58;10.60;77.10
13328;DHT22;6733;51.044;3.746;2023-12-20T15:24:27;10.60;77.20
13328;DHT22;6733;51.044;3.746;2023-12-20T15:27:03;10.50;77.40
13328;DHT22;6733;51.044;3.746;2023-12-20T15:29:30;10.50;77.60
13328;DHT22;6733;51.044;3.746;2023-12-20T15:31:56;10.50;77.80
13328;DHT22;6733;51.044;3.746;2023-12-20T15:34:23;10.50;77.80
13328;DHT22;6733;51.044;3.746;2023-12-20T15:36:49;10.50;77.90
13328;DHT22;6733;51.044;3.746;2023-12-20T15:39:15;10.50;78.10
13328;DHT22;6733;51.044;3.746;2023-12-20T15:41:42;10.40;78.30
13328;DHT22;6733;51.044;3.746;2023-12-20T15:44:08;10.40;78.50
13328;DHT22;6733;51.044;3.746;2023-12-20T15:46:34;10.40;78.60
13328;DHT22;6733;51.044;3.746;2023-12-20T15:49:00;10.40;78.70
13328;DHT22;6733;51.044;3.746;2023-12-20T15:51:27;10.40;78.90
13328;DHT22;6733;51.044;3.746;2023-12-20T15:53:53;10.40;78.90
13328;DHT22;6733;51.044;3.746;2023-12-20T15:56:19;10.40;79.00
13328;DHT22;6733;51.044;3.746;2023-12-20T15:58:46;10.40;78.90
13328;DHT22;6733;51.044;3.746;2023-12-20T16:01:17;10.40;78.90
13328;DHT22;6733;51.044;3.746;2023-12-20T16:03:44;10.30;79.10
13328;DHT22;6733;51.044;3.746;2023-12-20T16:06:10;10.30;79.20
13328;DHT22;6733;51.044;3.746;2023-12-20T16:08:37;10.30;79.50
13328;DHT22;6733;51.044;3.746;2023-12-20T16:11:03;10.20;79.60
13328;DHT22;6733;51.044;3.746;2023-12-20T16:13:29;10.20;79.80
13328;DHT22;6733;51.044;3.746;2023-12-20T16:15:55;10.20;80.10
13328;DHT22;6733;51.044;3.746;2023-12-20T16:18:21;10.10;80.20
13328;DHT22;6733;51.044;3.746;2023-12-20T16:20:47;10.10;80.40
13328;DHT22;6733;51.044;3.746;2023-12-20T16:23:14;10.10;80.60
13328;DHT22;6733;51.044;3.746;2023-12-20T16:25:40;10.10;80.80